Time;durP1;ratioP1;P1;durP2;ratioP2;P2;SDS_P1;SDS_P2;PMS_P1;PMS_P2;Temp;Humidity;BMP_temperature;BMP_pressure;BME280_temperature;BME280_humidity;BME280_pressure;Samples;Min_cycle;Max_cycle;Signal;HPM_P1;HPM_P2
2023/05/09 00:01:34;;;;;;;42.63;27.05;;;17.60;82.60;;;;;;5074460;28;20027;-64
2023/05/09 00:04:00;;;;;;;42.00;26.27;;;17.60;82.60;;;;;;5075579;28;20357;-65
2023/05/09 00:06:26;;;;;;;44.17;26.83;;;17.70;82.70;;;;;;5062956;28;20029;-64
2023/05/09 00:08:53;;;;;;;39.03;25.42;;;17.60;82.60;;;;;;5070716;28;20044;-64
2023/05/09 00:11:20;;;;;;;44.72;27.13;;;17.60;82.70;;;;;;5073269;28;20033;-64
2023/05/09 00:13:47;;;;;;;46.22;26.95;;;17.70;82.70;;;;;;5073228;28;20035;-64
2023/05/09 00:16:14;;;;;;;42.75;26.90;;;17.70;82.70;;;;;;5073475;28;20032;-64
2023/05/09 00:18:41;;;;;;;42.38;26.48;;;17.70;82.80;;;;;;5072833;28;20025;-64
2023/05/09 00:21:08;;;;;;;46.15;27.83;;;17.70;82.80;;;;;;5066717;28;20085;-64
2023/05/09 00:23:34;;;;;;;41.40;25.88;;;17.70;82.70;;;;;;5071523;28;20099;-64
2023/05/09 00:26:00;;;;;;;45.92;28.23;;;17.70;82.80;;;;;;5071597;28;20166;-64
2023/05/09 00:28:26;;;;;;;41.70;27.52;;;17.70;82.70;;;;;;5072269;28;20040;-64
2023/05/09 00:30:52;;;;;;;41.88;26.08;;;17.70;82.80;;;;;;5060903;28;20029;-64
2023/05/09 00:33:19;;;;;;;43.88;27.20;;;17.70;82.80;;;;;;5055991;28;20449;-64
2023/05/09 00:35:45;;;;;;;41.50;24.73;;;17.70;82.80;;;;;;5071080;28;20364;-64
2023/05/09 00:38:11;;;;;;;45.03;27.67;;;17.70;82.80;;;;;;5073959;28;20021;-64
2023/05/09 00:40:37;;;;;;;43.83;26.83;;;17.70;82.80;;;;;;5069014;28;20020;-64
2023/05/09 00:43:03;;;;;;;41.05;26.42;;;17.70;82.80;;;;;;5069208;28;20112;-64
2023/05/09 00:45:29;;;;;;;42.45;26.63;;;17.70;82.90;;;;;;5063387;28;20064;-64
2023/05/09 00:47:56;;;;;;;40.15;27.48;;;17.70;82.90;;;;;;5073211;28;20035;-64
2023/05/09 00:50:23;;;;;;;42.55;27.77;;;17.70;83.00;;;;;;5071228;28;20025;-64
2023/05/09 00:52:50;;;;;;;45.50;27.60;;;17.70;83.00;;;;;;5067932;28;20075;-64
2023/05/09 00:55:16;;;;;;;42.25;26.13;;;17.70;83.10;;;;;;5061272;28;20044;-64
2023/05/09 00:57:42;;;;;;;41.53;26.58;;;17.60;83.00;;;;;;5070447;28;20025;-64
2023/05/09 01:00:11;;;;;;;45.15;26.90;;;17.60;83.10;;;;;;5073408;28;20478;-64
2023/05/09 01:02:51;;;;;;;43.83;26.67;;;17.70;83.20;;;;;;5071100;28;20119;-64
2023/05/09 01:05:18;;;;;;;44.67;26.63;;;17.70;83.20;;;;;;5073338;28;20188;-64
2023/05/09 01:08:41;;;;;;;45.00;28.08;;;17.60;83.10;;;;;;5066584;28;20074;-64
2023/05/09 01:11:21;;;;;;;40.65;24.88;;;17.70;83.10;;;;;;4974978;28;20026;-64
2023/05/09 01:13:59;;;;;;;40.63;24.73;;;17.60;83.10;;;;;;4974894;28;20148;-64
2023/05/09 01:16:40;;;;;;;42.28;26.83;;;17.60;83.10;;;;;;5037094;28;20045;-64
2023/05/09 01:19:24;;;;;;;46.60;27.15;;;17.60;83.10;;;;;;5067005;28;20016;-64
2023/05/09 01:21:53;;;;;;;44.58;27.52;;;17.60;83.10;;;;;;5062921;28;20035;-64
2023/05/09 01:24:37;;;;;;;42.08;26.52;;;17.60;83.00;;;;;;5069399;28;20084;-64
2023/05/09 01:27:27;;;;;;;45.17;27.35;;;17.60;83.10;;;;;;5070791;28;20084;-64
2023/05/09 01:29:58;;;;;;;43.90;27.17;;;17.60;83.10;;;;;;5061753;28;20365;-64
2023/05/09 01:32:26;;;;;;;46.85;26.80;;;17.60;83.10;;;;;;5067334;28;20029;-64
2023/05/09 01:34:56;;;;;;;42.70;25.58;;;17.60;83.20;;;;;;5063357;28;20504;-64
2023/05/09 01:37:31;;;;;;;40.85;25.45;;;17.60;83.20;;;;;;5069238;28;20050;-64
2023/05/09 01:40:10;;;;;;;42.03;26.13;;;17.60;83.20;;;;;;5069230;28;20374;-65
2023/05/09 01:43:06;;;;;;;44.40;27.73;;;17.60;83.20;;;;;;5070602;28;20154;-64
2023/05/09 01:45:34;;;;;;;41.03;25.13;;;17.60;83.20;;;;;;5055955;28;20036;-64
2023/05/09 01:48:03;;;;;;;46.25;28.55;;;17.60;83.20;;;;;;5059235;28;20106;-64
2023/05/09 01:50:30;;;;;;;46.45;28.10;;;17.60;83.20;;;;;;5067374;28;20093;-64
2023/05/09 01:52:57;;;;;;;44.92;26.92;;;17.60;83.10;;;;;;5071116;28;20040;-64
2023/05/09 01:55:27;;;;;;;43.38;26.50;;;17.60;83.80;;;;;;5072220;28;20454;-64
2023/05/09 01:57:55;;;;;;;44.22;27.20;;;17.60;83.20;;;;;;5083063;28;20028;-64
2023/05/09 02:00:22;;;;;;;46.63;27.73;;;17.60;83.20;;;;;;5067774;28;20029;-64
2023/05/09 02:02:50;;;;;;;44.75;27.30;;;17.60;83.20;;;;;;5071490;28;20020;-64
2023/05/09 02:05:17;;;;;;;46.13;26.42;;;17.60;83.20;;;;;;5072120;28;20103;-65
2023/05/09 02:07:44;;;;;;;41.15;25.52;;;17.60;83.20;;;;;;5065770;28;20488;-65
2023/05/09 02:10:12;;;;;;;43.65;28.15;;;17.60;83.30;;;;;;5066450;28;20032;-64
2023/05/09 02:12:38;;;;;;;44.50;27.50;;;17.60;83.30;;;;;;5071209;28;20028;-64
2023/05/09 02:15:05;;;;;;;43.67;27.02;;;17.60;83.20;;;;;;5070472;28;20028;-64
2023/05/09 02:17:31;;;;;;;45.95;28.08;;;17.60;83.20;;;;;;5046560;28;20079;-64
2023/05/09 02:19:57;;;;;;;46.75;27.00;;;17.60;83.20;;;;;;5064317;28;20592;-64
2023/05/09 02:22:23;;;;;;;42.70;26.67;;;17.60;83.10;;;;;;5072526;28;20062;-64
2023/05/09 02:24:49;;;;;;;46.67;27.20;;;17.60;83.10;;;;;;5072044;28;20029;-64
2023/05/09 02:27:17;;;;;;;46.63;28.92;;;17.60;83.10;;;;;;5071487;28;20025;-64
2023/05/09 02:29:58;;;;;;;45.00;28.23;;;17.50;83.10;;;;;;5068577;28;20042;-64
2023/05/09 02:32:29;;;;;;;43.85;27.67;;;17.50;83.20;;;;;;5067024;28;20037;-64
2023/05/09 02:34:56;;;;;;;41.60;26.83;;;17.60;83.20;;;;;;5068508;28;20029;-64
2023/05/09 02:37:23;;;;;;;42.55;26.75;;;17.50;83.20;;;;;;5065423;28;20021;-64
2023/05/09 02:39:49;;;;;;;47.83;27.77;;;17.50;83.20;;;;;;5054553;28;20051;-64
2023/05/09 02:42:21;;;;;;;47.33;28.08;;;17.50;83.20;;;;;;5066605;28;20020;-64
2023/05/09 02:44:47;;;;;;;48.10;29.27;;;17.50;83.20;;;;;;5054812;28;20055;-64
2023/05/09 02:47:14;;;;;;;46.47;28.17;;;17.50;83.10;;;;;;5072368;28;20032;-65
2023/05/09 02:49:40;;;;;;;48.60;28.90;;;17.50;83.10;;;;;;5067909;28;20108;-64
2023/05/09 02:52:06;;;;;;;49.58;29.65;;;17.50;83.10;;;;;;5062661;28;20124;-64
2023/05/09 02:54:32;;;;;;;50.55;30.02;;;17.50;83.10;;;;;;5060610;28;20059;-64
2023/05/09 02:56:58;;;;;;;50.15;29.58;;;17.50;83.10;;;;;;5070501;28;20150;-64
2023/05/09 02:59:25;;;;;;;45.60;28.85;;;17.50;83.20;;;;;;5070042;28;20086;-64
2023/05/09 03:01:51;;;;;;;50.58;29.50;;;17.50;83.10;;;;;;5070477;28;20056;-64
2023/05/09 03:04:18;;;;;;;46.00;27.88;;;17.50;83.10;;;;;;5053959;28;20083;-64
2023/05/09 03:06:44;;;;;;;47.88;29.58;;;17.50;83.20;;;;;;5069990;28;20043;-64
2023/05/09 03:09:11;;;;;;;48.25;28.25;;;17.50;83.20;;;;;;5071812;28;20049;-63
2023/05/09 03:11:37;;;;;;;46.08;28.98;;;17.50;83.20;;;;;;5070457;28;20032;-64
2023/05/09 03:14:03;;;;;;;49.10;28.88;;;17.40;83.20;;;;;;5074649;28;20507;-64
2023/05/09 03:16:29;;;;;;;46.00;29.55;;;17.40;83.10;;;;;;5074961;28;20439;-64
2023/05/09 03:18:55;;;;;;;45.80;28.17;;;17.40;83.20;;;;;;5071922;28;20108;-64
2023/05/09 03:21:21;;;;;;;49.17;29.63;;;17.40;83.10;;;;;;5059362;28;20111;-64
2023/05/09 03:23:47;;;;;;;50.03;29.77;;;17.40;83.10;;;;;;5064310;28;20066;-64
2023/05/09 03:26:13;;;;;;;52.80;29.98;;;17.40;83.00;;;;;;5075484;28;20028;-64
2023/05/09 03:28:39;;;;;;;53.80;31.35;;;17.40;83.00;;;;;;5064128;28;20477;-64
2023/05/09 03:31:05;;;;;;;54.03;30.85;;;17.40;83.00;;;;;;5067285;28;20024;-64
2023/05/09 03:33:31;;;;;;;50.60;29.88;;;17.40;83.00;;;;;;5074193;28;20587;-64
2023/05/09 03:35:59;;;;;;;49.78;30.67;;;17.40;83.00;;;;;;5074979;28;20028;-64
2023/05/09 03:38:25;;;;;;;48.67;28.20;;;17.40;83.00;;;;;;5067805;28;20017;-64
2023/05/09 03:40:53;;;;;;;44.65;27.45;;;17.40;83.00;;;;;;5069649;28;20044;-64
2023/05/09 03:43:19;;;;;;;49.53;30.40;;;17.40;83.10;;;;;;5073190;28;20024;-64
2023/05/09 03:45:45;;;;;;;49.33;31.33;;;17.40;83.10;;;;;;5075044;28;20031;-64
2023/05/09 03:48:13;;;;;;;50.05;28.60;;;17.40;83.10;;;;;;5070266;28;20475;-64
2023/05/09 03:50:44;;;;;;;44.72;27.98;;;17.30;83.00;;;;;;5066345;28;20476;-64
2023/05/09 03:53:11;;;;;;;44.20;28.65;;;17.40;83.00;;;;;;5055030;28;20491;-64
2023/05/09 03:55:38;;;;;;;43.25;26.73;;;17.40;82.90;;;;;;5062867;28;20380;-64
2023/05/09 03:58:05;;;;;;;44.35;26.42;;;17.30;83.50;;;;;;5071851;28;20012;-64
2023/05/09 04:00:32;;;;;;;46.50;27.17;;;17.30;82.80;;;;;;5066234;28;20116;-64
2023/05/09 04:03:06;;;;;;;38.88;25.95;;;17.30;82.80;;;;;;5073496;28;20444;-64
2023/05/09 04:05:37;;;;;;;43.05;26.13;;;17.30;82.80;;;;;;5072067;28;20356;-64
2023/05/09 04:08:05;;;;;;;43.78;25.65;;;17.30;82.80;;;;;;5066819;28;20021;-64
2023/05/09 04:10:32;;;;;;;43.90;25.90;;;17.30;82.80;;;;;;5077030;28;20033;-64
2023/05/09 04:12:58;;;;;;;50.20;28.38;;;17.30;82.80;;;;;;5062790;28;20372;-64
2023/05/09 04:15:24;;;;;;;42.72;26.02;;;17.30;82.80;;;;;;5055199;28;20116;-64
2023/05/09 04:17:50;;;;;;;42.25;26.08;;;17.30;82.80;;;;;;5067115;28;20028;-64
2023/05/09 04:20:16;;;;;;;42.67;27.33;;;17.30;82.90;;;;;;5062313;28;20024;-64
2023/05/09 04:22:42;;;;;;;40.83;26.00;;;17.30;82.90;;;;;;5068389;28;20031;-65
2023/05/09 04:25:13;;;;;;;43.58;24.95;;;17.30;82.90;;;;;;5071032;28;20430;-64
2023/05/09 04:27:39;;;;;;;44.70;27.05;;;17.30;82.80;;;;;;5071489;28;20078;-64
2023/05/09 04:30:05;;;;;;;41.33;26.05;;;17.30;82.70;;;;;;5070408;28;20021;-65
2023/05/09 04:32:31;;;;;;;42.60;26.98;;;17.30;82.70;;;;;;5059790;28;20112;-64
2023/05/09 04:34:57;;;;;;;43.90;26.08;;;17.30;82.70;;;;;;5058143;28;20051;-65
2023/05/09 04:37:28;;;;;;;42.05;25.73;;;17.30;82.70;;;;;;5067985;28;20025;-65
2023/05/09 04:39:54;;;;;;;44.28;27.42;;;17.30;82.70;;;;;;5046424;28;20104;-65
2023/05/09 04:42:25;;;;;;;;;;;17.30;82.70;;;;;;5059678;28;20028;-64
2023/05/09 04:44:51;;;;;;;38.83;24.63;;;17.30;82.70;;;;;;5063254;28;19909;-64
2023/05/09 04:47:17;;;;;;;39.33;23.50;;;17.20;82.60;;;;;;5041478;28;20064;-64
2023/05/09 04:49:43;;;;;;;39.25;25.40;;;17.20;82.50;;;;;;5053182;28;20095;-64
2023/05/09 04:52:09;;;;;;;39.78;23.27;;;17.20;82.50;;;;;;5041408;28;20029;-64
2023/05/09 04:54:35;;;;;;;36.40;23.95;;;17.20;82.50;;;;;;5059469;28;20052;-64
2023/05/09 04:57:03;;;;;;;37.92;24.55;;;17.20;82.50;;;;;;5055974;28;20020;-64
2023/05/09 04:59:30;;;;;;;36.75;22.50;;;17.20;82.50;;;;;;5077008;28;20020;-64
2023/05/09 05:01:56;;;;;;;36.92;23.40;;;17.20;82.50;;;;;;5071391;28;20545;-65
2023/05/09 05:04:22;;;;;;;34.50;22.10;;;17.20;82.40;;;;;;5068367;28;20020;-64
2023/05/09 05:06:48;;;;;;;46.22;24.10;;;17.20;82.40;;;;;;5069158;28;20539;-64
2023/05/09 05:09:14;;;;;;;34.20;22.35;;;17.20;82.40;;;;;;5070643;28;20037;-64
2023/05/09 05:11:39;;;;;;;35.53;21.55;;;17.20;82.30;;;;;;5073819;28;20194;-64
2023/05/09 05:14:05;;;;;;;28.90;20.42;;;17.30;82.30;;;;;;5074411;28;20039;-64
2023/05/09 05:16:31;;;;;;;30.58;20.48;;;17.30;82.30;;;;;;5073310;28;20098;-64
2023/05/09 05:18:57;;;;;;;30.27;19.80;;;17.30;82.20;;;;;;5072367;28;20032;-64
2023/05/09 05:21:23;;;;;;;36.13;21.73;;;17.20;82.10;;;;;;5072644;28;20032;-64
2023/05/09 05:23:49;;;;;;;32.55;19.83;;;17.20;82.00;;;;;;5074012;28;20032;-64
2023/05/09 05:26:15;;;;;;;31.98;20.58;;;17.20;82.00;;;;;;5073178;28;20453;-64
2023/05/09 05:28:41;;;;;;;28.40;19.02;;;17.20;82.00;;;;;;5072140;28;20085;-64
2023/05/09 05:31:07;;;;;;;30.08;19.13;;;17.20;82.00;;;;;;5058232;28;20032;-64
2023/05/09 05:33:33;;;;;;;26.48;18.15;;;17.30;82.00;;;;;;5073041;28;20033;-64
2023/05/09 05:35:59;;;;;;;27.67;19.85;;;17.30;81.90;;;;;;5072816;28;20028;-64
2023/05/09 05:38:25;;;;;;;29.63;18.88;;;17.30;81.80;;;;;;5072221;28;20025;-64
2023/05/09 05:40:53;;;;;;;29.70;19.70;;;17.30;81.80;;;;;;5072836;28;20043;-64
2023/05/09 05:43:20;;;;;;;29.35;19.67;;;17.30;81.70;;;;;;5073050;28;20029;-64
2023/05/09 05:45:46;;;;;;;28.92;20.05;;;17.40;81.70;;;;;;5072137;28;20047;-64
2023/05/09 05:48:16;;;;;;;29.60;19.13;;;17.40;81.60;;;;;;5072890;28;20036;-64
2023/05/09 05:50:42;;;;;;;28.33;19.50;;;17.40;81.60;;;;;;5071782;28;20073;-64
2023/05/09 05:53:09;;;;;;;30.63;20.00;;;17.50;81.50;;;;;;5068667;28;20020;-63
2023/05/09 05:55:35;;;;;;;28.88;19.52;;;17.50;81.50;;;;;;5071143;28;20036;-63
2023/05/09 05:58:01;;;;;;;29.40;19.75;;;17.60;82.00;;;;;;5067154;28;20138;-63
2023/05/09 06:00:27;;;;;;;28.38;20.15;;;17.60;81.20;;;;;;5071846;28;20115;-63
2023/05/09 06:02:59;;;;;;;26.00;18.80;;;17.70;81.20;;;;;;5070598;28;20112;-64
2023/05/09 06:05:32;;;;;;;29.77;20.00;;;17.80;81.00;;;;;;5072585;28;20020;-63
2023/05/09 06:07:58;;;;;;;30.85;19.88;;;17.80;80.70;;;;;;5072960;28;20357;-64
2023/05/09 06:10:24;;;;;;;28.20;19.65;;;17.90;80.70;;;;;;5062642;28;20044;-63
2023/05/09 06:12:49;;;;;;;25.58;17.50;;;17.90;80.50;;;;;;5065738;28;20116;-63
2023/05/09 06:15:16;;;;;;;26.23;17.85;;;17.90;80.30;;;;;;5068115;28;20457;-64
2023/05/09 06:17:45;;;;;;;28.67;18.50;;;17.90;80.20;;;;;;5071077;28;20400;-64
2023/05/09 06:20:10;;;;;;;28.48;18.00;;;17.90;80.10;;;;;;5067437;28;20050;-63
2023/05/09 06:22:37;;;;;;;25.35;17.35;;;18.00;80.00;;;;;;5074026;28;20461;-63
2023/05/09 06:25:03;;;;;;;28.80;17.88;;;18.00;79.90;;;;;;5070516;28;20048;-63
2023/05/09 06:27:28;;;;;;;23.63;16.88;;;18.00;79.80;;;;;;5071561;28;20032;-63
2023/05/09 06:29:54;;;;;;;23.02;15.90;;;18.00;79.90;;;;;;5071779;28;20047;-63
2023/05/09 06:32:20;;;;;;;24.35;15.23;;;18.10;79.60;;;;;;5073436;28;20028;-63
2023/05/09 06:34:47;;;;;;;21.63;15.60;;;18.10;79.50;;;;;;5064332;28;20090;-64
2023/05/09 06:37:13;;;;;;;21.25;14.50;;;18.10;79.40;;;;;;5073231;28;20036;-63
2023/05/09 06:39:38;;;;;;;22.00;14.52;;;18.10;79.30;;;;;;5071487;28;20031;-64
2023/05/09 06:42:04;;;;;;;23.35;15.18;;;18.10;79.10;;;;;;5076171;28;20085;-63
2023/05/09 06:44:32;;;;;;;21.40;13.82;;;18.20;78.90;;;;;;5074626;28;20420;-63
2023/05/09 06:46:58;;;;;;;24.13;15.32;;;18.30;78.70;;;;;;5077388;28;20050;-63
2023/05/09 06:49:23;;;;;;;20.58;13.60;;;18.30;78.60;;;;;;5075118;28;20028;-64
2023/05/09 06:51:49;;;;;;;23.38;15.35;;;18.40;78.40;;;;;;5077109;28;20028;-63
2023/05/09 06:54:16;;;;;;;18.85;13.38;;;18.40;78.20;;;;;;5056959;28;20097;-66
2023/05/09 06:56:41;;;;;;;22.65;14.65;;;18.50;78.20;;;;;;5057138;28;20025;-64
2023/05/09 06:59:12;;;;;;;20.05;14.93;;;18.60;77.90;;;;;;5066070;28;20101;-65
2023/05/09 07:01:38;;;;;;;19.60;13.73;;;18.60;77.60;;;;;;5075614;28;20032;-64
2023/05/09 07:04:04;;;;;;;21.25;14.75;;;18.70;77.40;;;;;;5075115;28;20094;-63
2023/05/09 07:06:30;;;;;;;19.17;14.10;;;18.70;77.20;;;;;;5076785;28;20028;-64
2023/05/09 07:08:56;;;;;;;21.40;13.90;;;18.80;77.00;;;;;;5074080;28;20179;-64
2023/05/09 07:11:22;;;;;;;18.85;12.88;;;18.80;76.80;;;;;;5063409;28;20033;-64
2023/05/09 07:13:47;;;;;;;16.73;12.18;;;18.90;76.50;;;;;;5068678;28;20039;-65
2023/05/09 07:16:13;;;;;;;19.95;13.95;;;18.90;76.10;;;;;;5075478;28;20036;-65
2023/05/09 07:18:39;;;;;;;21.00;13.55;;;18.90;75.90;;;;;;5074217;28;20055;-67
2023/05/09 07:21:05;;;;;;;18.30;11.85;;;18.90;75.80;;;;;;5075958;28;20024;-66
2023/05/09 07:23:31;;;;;;;16.60;11.68;;;19.00;75.80;;;;;;5085400;28;20115;-66
2023/05/09 07:25:57;;;;;;;17.88;12.18;;;19.00;75.70;;;;;;5070791;28;20025;-66
2023/05/09 07:28:23;;;;;;;16.27;11.65;;;19.00;75.60;;;;;;5049601;28;20059;-68
2023/05/09 07:30:49;;;;;;;18.98;12.60;;;19.00;75.60;;;;;;5063689;28;20060;-68
2023/05/09 07:33:15;;;;;;;16.77;12.18;;;19.00;75.50;;;;;;5072880;28;20053;-68
2023/05/09 07:35:40;;;;;;;17.08;12.25;;;19.00;75.60;;;;;;5071838;28;20025;-67
2023/05/09 07:38:06;;;;;;;17.45;11.57;;;19.00;75.70;;;;;;5069395;28;20016;-67
2023/05/09 07:40:35;;;;;;;17.55;12.15;;;19.00;75.40;;;;;;5064433;28;20013;-68
2023/05/09 07:43:01;;;;;;;16.67;11.32;;;19.00;75.40;;;;;;5075547;28;20153;-68
2023/05/09 07:45:26;;;;;;;17.75;12.43;;;19.00;75.30;;;;;;5070278;28;20111;-66
2023/05/09 07:47:52;;;;;;;17.52;11.75;;;18.90;75.10;;;;;;5075711;28;20060;-65
2023/05/09 07:50:18;;;;;;;16.80;12.75;;;19.00;75.80;;;;;;5071874;28;20082;-66
2023/05/09 07:52:44;;;;;;;17.77;12.73;;;18.90;75.20;;;;;;5074893;28;20446;-66
2023/05/09 07:55:11;;;;;;;17.02;12.82;;;19.00;75.30;;;;;;5070399;28;20040;-66
2023/05/09 07:57:38;;;;;;;19.70;13.38;;;19.00;75.30;;;;;;5075830;28;20082;-66
2023/05/09 08:00:09;;;;;;;19.05;13.82;;;19.00;75.10;;;;;;5075749;28;20066;-65
2023/05/09 08:02:40;;;;;;;17.88;13.00;;;19.10;75.00;;;;;;5070054;28;20035;-66
2023/05/09 08:05:07;;;;;;;18.95;13.07;;;19.10;75.00;;;;;;5073999;28;20458;-66
2023/05/09 08:07:33;;;;;;;17.17;13.20;;;19.20;74.80;;;;;;5064684;28;20042;-66
2023/05/09 08:09:58;;;;;;;17.63;13.00;;;19.20;74.70;;;;;;5058234;28;20075;-65
2023/05/09 08:12:24;;;;;;;18.42;13.93;;;19.20;74.60;;;;;;5070114;28;20119;-66
2023/05/09 08:14:50;;;;;;;17.08;13.45;;;19.20;74.60;;;;;;5060832;28;20108;-66
2023/05/09 08:17:16;;;;;;;17.27;13.15;;;19.20;74.70;;;;;;5068047;28;20033;-66
2023/05/09 08:19:42;;;;;;;20.98;14.15;;;19.20;75.40;;;;;;5071012;28;20048;-66
2023/05/09 08:22:07;;;;;;;18.08;13.55;;;19.30;74.70;;;;;;5069774;28;20031;-66
2023/05/09 08:24:33;;;;;;;19.15;14.02;;;19.30;74.70;;;;;;5073501;28;20070;-66
2023/05/09 08:26:59;;;;;;;16.25;11.77;;;19.30;74.60;;;;;;5070583;28;20493;-66
2023/05/09 08:29:25;;;;;;;17.15;12.73;;;19.30;74.70;;;;;;5073820;28;20028;-66
2023/05/09 08:31:51;;;;;;;16.60;12.00;;;19.20;74.60;;;;;;5070558;28;20137;-68
2023/05/09 08:34:16;;;;;;;19.08;13.02;;;19.20;74.50;;;;;;5068604;28;20032;-68
2023/05/09 08:36:44;;;;;;;18.80;13.35;;;19.10;74.50;;;;;;5065652;28;20090;-69
2023/05/09 08:39:10;;;;;;;17.02;12.95;;;19.00;74.50;;;;;;5071215;28;20036;-68
2023/05/09 08:41:37;;;;;;;17.75;12.23;;;19.00;74.60;;;;;;5064134;28;20021;-68
2023/05/09 08:44:03;;;;;;;17.73;12.65;;;19.00;74.70;;;;;;5065189;28;20052;-69
2023/05/09 08:46:43;;;;;;;17.52;12.65;;;18.90;74.80;;;;;;5062774;28;20035;-68
2023/05/09 08:49:09;;;;;;;17.15;12.30;;;18.90;74.90;;;;;;5067510;28;20392;-65
2023/05/09 08:51:36;;;;;;;17.92;12.98;;;18.90;75.00;;;;;;5049116;28;20028;-67
2023/05/09 08:54:02;;;;;;;17.80;12.25;;;18.90;75.10;;;;;;5072460;28;20452;-66
2023/05/09 08:56:30;;;;;;;17.83;13.23;;;18.80;75.10;;;;;;5066126;28;20353;-68
2023/05/09 08:58:55;;;;;;;18.48;13.18;;;18.90;75.20;;;;;;5072075;28;20191;-66
2023/05/09 09:01:22;;;;;;;17.88;13.38;;;18.90;75.30;;;;;;5063138;28;20167;-67
2023/05/09 09:03:48;;;;;;;15.65;12.32;;;18.90;75.40;;;;;;5071046;28;20029;-67
2023/05/09 09:06:16;;;;;;;15.23;12.30;;;19.00;75.30;;;;;;5064919;28;20029;-66
2023/05/09 09:08:44;;;;;;;19.38;13.35;;;19.00;75.10;;;;;;5062620;28;20175;-66
2023/05/09 09:11:12;;;;;;;16.55;12.73;;;19.00;75.10;;;;;;5069665;28;20078;-65
2023/05/09 09:13:40;;;;;;;15.68;11.65;;;19.00;75.10;;;;;;5065421;28;20083;-64
2023/05/09 09:16:10;;;;;;;17.52;12.38;;;19.00;75.10;;;;;;5058289;28;20031;-65
2023/05/09 09:18:36;;;;;;;17.65;12.30;;;19.00;75.30;;;;;;5057267;28;20128;-67
2023/05/09 09:21:08;;;;;;;19.38;12.40;;;19.00;75.30;;;;;;5070848;28;20016;-66
2023/05/09 09:23:36;;;;;;;18.92;13.50;;;18.90;75.40;;;;;;5072831;28;20039;-68
2023/05/09 09:26:05;;;;;;;17.65;12.52;;;18.90;75.50;;;;;;5055679;28;20139;-68
2023/05/09 09:28:31;;;;;;;18.77;13.48;;;18.80;75.60;;;;;;5072025;28;20112;-68
2023/05/09 09:30:57;;;;;;;17.15;13.25;;;18.80;75.80;;;;;;5063411;28;20249;-68
2023/05/09 09:33:25;;;;;;;16.65;12.45;;;18.70;75.90;;;;;;5073093;28;20045;-67
2023/05/09 09:35:52;;;;;;;16.73;12.18;;;18.70;75.90;;;;;;5072702;28;20032;-67
2023/05/09 09:38:19;;;;;;;14.65;11.23;;;18.70;75.80;;;;;;5072105;28;20028;-66
2023/05/09 09:40:51;;;;;;;16.33;10.88;;;18.70;75.80;;;;;;5071217;28;20028;-67
2023/05/09 09:43:17;;;;;;;14.98;11.40;;;18.70;75.80;;;;;;5061465;28;20033;-67
2023/05/09 09:45:47;;;;;;;14.30;10.68;;;18.70;75.80;;;;;;5071901;28;20020;-67
2023/05/09 09:48:12;;;;;;;13.82;10.50;;;18.70;75.80;;;;;;5062616;28;20067;-66
2023/05/09 09:50:38;;;;;;;14.20;9.68;;;18.70;75.60;;;;;;5073720;28;20086;-67
2023/05/09 09:53:04;;;;;;;13.10;9.18;;;18.70;75.40;;;;;;5068155;28;20116;-67
2023/05/09 09:55:30;;;;;;;13.95;9.00;;;18.80;75.40;;;;;;5061128;28;20107;-67
2023/05/09 09:57:56;;;;;;;11.43;8.05;;;18.80;75.30;;;;;;5062984;28;20044;-67
2023/05/09 10:00:27;;;;;;;12.82;9.13;;;18.90;75.20;;;;;;5064409;28;20044;-67
2023/05/09 10:02:55;;;;;;;13.15;8.75;;;19.00;75.20;;;;;;5060607;28;20396;-67
2023/05/09 10:05:28;;;;;;;12.60;8.65;;;19.10;74.90;;;;;;5067654;28;20029;-65
2023/05/09 10:07:56;;;;;;;13.20;8.50;;;19.20;74.80;;;;;;5071989;28;20413;-66
2023/05/09 10:10:25;;;;;;;10.77;8.00;;;19.20;74.60;;;;;;5071630;28;20063;-66
2023/05/09 10:12:56;;;;;;;11.45;8.77;;;19.30;74.40;;;;;;5059918;28;20053;-66
2023/05/09 10:15:22;;;;;;;11.55;7.85;;;19.40;74.30;;;;;;5070394;28;20020;-66
2023/05/09 10:17:54;;;;;;;11.10;7.95;;;19.40;74.20;;;;;;5074791;28;20041;-65
2023/05/09 10:20:20;;;;;;;11.20;7.40;;;19.40;74.00;;;;;;5075562;28;20453;-66
2023/05/09 10:22:47;;;;;;;10.55;7.28;;;19.50;73.80;;;;;;5064440;28;20028;-66
2023/05/09 10:25:32;;;;;;;11.18;7.10;;;19.60;73.60;;;;;;5076908;28;20090;-65
2023/05/09 10:28:00;;;;;;;10.45;5.70;;;19.60;73.20;;;;;;5071880;28;20042;-68
2023/05/09 10:30:38;;;;;;;11.23;6.45;;;19.60;73.20;;;;;;5071351;28;20087;-66
2023/05/09 10:33:10;;;;;;;10.68;6.50;;;19.60;73.10;;;;;;5071958;28;20044;-66
2023/05/09 10:35:39;;;;;;;12.18;5.72;;;19.50;73.20;;;;;;5077431;28;20024;-65
2023/05/09 10:38:06;;;;;;;8.30;5.68;;;19.60;73.20;;;;;;5075261;28;20099;-66
2023/05/09 10:40:33;;;;;;;10.98;5.88;;;19.60;73.20;;;;;;5071735;28;20074;-66
2023/05/09 10:42:59;;;;;;;8.52;5.63;;;19.70;73.10;;;;;;5076452;28;20042;-66
2023/05/09 10:45:26;;;;;;;8.45;5.20;;;19.70;73.00;;;;;;5071102;28;20270;-63
2023/05/09 10:47:55;;;;;;;8.30;5.65;;;19.70;72.90;;;;;;5061907;28;20104;-64
2023/05/09 10:50:21;;;;;;;9.27;5.95;;;19.70;72.90;;;;;;5060588;28;20158;-64
2023/05/09 10:53:16;;;;;;;10.60;5.82;;;19.70;73.00;;;;;;5067524;28;20025;-64
2023/05/09 10:55:53;;;;;;;7.72;5.53;;;19.60;73.20;;;;;;5074459;28;20429;-65
2023/05/09 10:58:35;;;;;;;8.73;5.70;;;19.60;73.50;;;;;;5071326;28;20032;-64
2023/05/09 11:01:04;;;;;;;9.00;6.13;;;19.50;73.70;;;;;;5062468;28;20500;-64
2023/05/09 11:03:53;;;;;;;9.30;6.70;;;19.50;74.10;;;;;;5074719;28;20036;-64
2023/05/09 11:06:49;;;;;;;10.23;5.88;;;19.40;74.50;;;;;;5072695;28;20075;-63
2023/05/09 11:09:36;;;;;;;9.77;6.43;;;19.30;74.70;;;;;;5060904;28;20091;-64
2023/05/09 11:12:11;;;;;;;8.98;6.03;;;19.20;75.10;;;;;;5064052;28;20338;-64
2023/05/09 11:14:46;;;;;;;10.68;7.20;;;19.20;75.50;;;;;;5072258;28;20036;-63
2023/05/09 11:17:23;;;;;;;10.88;6.90;;;19.20;75.60;;;;;;5076291;28;20098;-64
2023/05/09 11:19:49;;;;;;;11.18;7.50;;;19.10;75.80;;;;;;5072751;28;20016;-64
2023/05/09 11:22:37;;;;;;;9.90;7.30;;;19.00;75.90;;;;;;5076641;28;20446;-64
2023/05/09 11:25:05;;;;;;;10.20;6.88;;;19.00;76.30;;;;;;5070347;28;20052;-64
2023/05/09 11:27:40;;;;;;;9.15;6.35;;;18.90;76.40;;;;;;5074192;28;20459;-66
2023/05/09 11:30:08;;;;;;;9.68;6.60;;;18.90;76.70;;;;;;5074364;28;20024;-66
2023/05/09 11:32:41;;;;;;;10.13;6.38;;;18.90;76.80;;;;;;5069682;28;20040;-65
2023/05/09 11:35:14;;;;;;;10.07;6.65;;;18.80;77.10;;;;;;5068420;28;20053;-65
2023/05/09 11:37:45;;;;;;;10.93;5.85;;;18.70;77.30;;;;;;5064946;28;20398;-66
2023/05/09 11:40:13;;;;;;;8.38;5.35;;;18.70;77.40;;;;;;5074128;28;20032;-66
2023/05/09 11:42:44;;;;;;;7.22;4.72;;;18.60;77.40;;;;;;5065343;28;20028;-65
2023/05/09 11:45:11;;;;;;;8.35;5.10;;;18.60;77.60;;;;;;5075516;28;20034;-65
2023/05/09 11:47:38;;;;;;;8.65;4.45;;;18.60;77.50;;;;;;5074417;28;20021;-66
2023/05/09 11:50:08;;;;;;;7.13;4.22;;;18.60;77.70;;;;;;5074107;28;20036;-65
2023/05/09 11:52:35;;;;;;;8.05;4.72;;;18.60;77.80;;;;;;5075866;28;20036;-64
2023/05/09 11:55:01;;;;;;;8.77;5.03;;;18.50;77.90;;;;;;5067771;28;20150;-64
2023/05/09 11:57:28;;;;;;;8.18;4.63;;;18.50;77.80;;;;;;5074441;28;20036;-65
2023/05/09 11:59:54;;;;;;;8.05;4.45;;;18.50;78.00;;;;;;5068198;28;20426;-65
2023/05/09 12:02:33;;;;;;;6.85;3.83;;;18.50;77.90;;;;;;5071847;28;20434;-66
2023/05/09 12:05:10;;;;;;;7.43;3.47;;;18.50;77.90;;;;;;5070050;28;20028;-65
2023/05/09 12:07:39;;;;;;;5.72;2.88;;;18.50;77.80;;;;;;5072367;28;20029;-65
2023/05/09 12:10:09;;;;;;;6.05;3.13;;;18.40;77.70;;;;;;5072777;28;20139;-65
2023/05/09 12:12:40;;;;;;;7.30;3.27;;;18.40;77.70;;;;;;5075660;28;20452;-66
2023/05/09 12:15:07;;;;;;;5.55;2.67;;;18.40;77.60;;;;;;5069250;28;20287;-64
2023/05/09 12:17:34;;;;;;;6.40;2.75;;;18.40;77.60;;;;;;5074890;28;20064;-64
2023/05/09 12:20:00;;;;;;;5.88;2.50;;;18.40;77.50;;;;;;5068492;28;20025;-63
2023/05/09 12:22:27;;;;;;;6.85;2.80;;;18.40;77.50;;;;;;5066993;28;20032;-64
2023/05/09 12:24:53;;;;;;;6.18;2.60;;;18.40;77.40;;;;;;5072448;28;20365;-64
2023/05/09 12:27:19;;;;;;;5.35;3.03;;;18.30;77.50;;;;;;5064824;28;20099;-64
2023/05/09 12:29:47;;;;;;;4.93;2.47;;;18.30;77.40;;;;;;5071878;28;20077;-66
2023/05/09 12:32:16;;;;;;;5.82;2.90;;;18.30;77.40;;;;;;5069406;28;20549;-64
2023/05/09 12:34:44;;;;;;;5.45;2.50;;;18.30;77.40;;;;;;5063664;28;20065;-65
2023/05/09 12:37:17;;;;;;;5.88;2.90;;;18.30;77.40;;;;;;5070668;28;20108;-65